UKL613L EDDP-UKLL
Flight info
| Callsign | UKL613L |
|---|---|
| Flight time | 1h 50m |
| Altitude | 37000 |
| Route | DRN2E DRN DCT LASIS L986 LUXAR L984 DIBED |
| Aircraft | A306/H-SDE3FGHIRWY/LB1 |
Departure
| Time | 2026-05-06 06:31 |
|---|---|
| Airport | Leipzig/Halle Airport (EDDP) |
Arrival
| Time | 2026-05-06 08:21 |
|---|---|
| Airport | Lviv International Airport (UKLL) |
| Time | Latitude | Longitude | Altitude | Speed | Heading |
|---|---|---|---|---|---|
| 2026-05-06 05:56 | 51.40928 | 12.23081 | 469 ft | 0 kts | 266° |
| 2026-05-06 06:17 | 51.40929 | 12.23099 | 475 ft | 4 kts | 269° |
| 2026-05-06 06:17 | 51.40927 | 12.23142 | 472 ft | 4 kts | 283° |
| 2026-05-06 06:17 | 51.40918 | 12.23180 | 471 ft | 4 kts | 317° |
| 2026-05-06 06:18 | 51.40905 | 12.23192 | 467 ft | 1 kts | 356° |
| 2026-05-06 06:22 | 51.40915 | 12.23191 | 467 ft | 5 kts | 356° |
| 2026-05-06 06:22 | 51.40963 | 12.23186 | 472 ft | 6 kts | 356° |
| 2026-05-06 06:23 | 51.41001 | 12.23162 | 471 ft | 8 kts | 324° |
| 2026-05-06 06:23 | 51.41019 | 12.23083 | 474 ft | 6 kts | 272° |
| 2026-05-06 06:23 | 51.41018 | 12.23023 | 475 ft | 5 kts | 268° |
| 2026-05-06 06:23 | 51.41017 | 12.22982 | 474 ft | 3 kts | 267° |
| 2026-05-06 06:24 | 51.41015 | 12.22932 | 474 ft | 9 kts | 266° |
| 2026-05-06 06:24 | 51.41009 | 12.22800 | 473 ft | 12 kts | 267° |
| 2026-05-06 06:24 | 51.41004 | 12.22688 | 469 ft | 8 kts | 265° |
| 2026-05-06 06:24 | 51.40997 | 12.22541 | 467 ft | 21 kts | 266° |
| 2026-05-06 06:25 | 51.41033 | 12.22314 | 466 ft | 19 kts | 308° |
| 2026-05-06 06:25 | 51.41065 | 12.22143 | 466 ft | 14 kts | 271° |
| 2026-05-06 06:25 | 51.41050 | 12.21791 | 466 ft | 15 kts | 265° |
| 2026-05-06 06:26 | 51.41040 | 12.21603 | 464 ft | 20 kts | 266° |
| 2026-05-06 06:26 | 51.41029 | 12.21346 | 458 ft | 26 kts | 265° |
| 2026-05-06 06:26 | 51.41016 | 12.21038 | 451 ft | 31 kts | 267° |
| 2026-05-06 06:26 | 51.41002 | 12.20750 | 429 ft | 19 kts | 265° |
| 2026-05-06 06:27 | 51.40995 | 12.20570 | 434 ft | 5 kts | 269° |
| 2026-05-06 06:27 | 51.40995 | 12.20569 | 434 ft | 0 kts | 269° |
| 2026-05-06 06:28 | 51.40994 | 12.20562 | 434 ft | 4 kts | 269° |
| 2026-05-06 06:28 | 51.41032 | 12.20496 | 437 ft | 13 kts | 341° |
| 2026-05-06 06:29 | 51.41121 | 12.20520 | 436 ft | 13 kts | 24° |
| 2026-05-06 06:29 | 51.41170 | 12.20620 | 432 ft | 5 kts | 71° |
| 2026-05-06 06:29 | 51.41170 | 12.20621 | 432 ft | 0 kts | 71° |
| 2026-05-06 06:29 | 51.41170 | 12.20629 | 433 ft | 4 kts | 83° |
| 2026-05-06 06:30 | 51.41181 | 12.20886 | 449 ft | 54 kts | 85° |
| 2026-05-06 06:30 | 51.41226 | 12.21854 | 462 ft | 118 kts | 85° |
| 2026-05-06 06:30 | 51.41303 | 12.23461 | 476 ft | 171 kts | 86° |
| 2026-05-06 06:30 | 51.41400 | 12.25611 | 645 ft | 210 kts | 84° |
| 2026-05-06 06:31 | 51.41368 | 12.28017 | 1307 ft | 222 kts | 99° |
| 2026-05-06 06:31 | 51.40680 | 12.30355 | 1789 ft | 256 kts | 129° |
| 2026-05-06 06:31 | 51.39089 | 12.32060 | 1931 ft | 291 kts | 165° |
| 2026-05-06 06:31 | 51.37152 | 12.32070 | 3156 ft | 275 kts | 200° |
| 2026-05-06 06:32 | 51.35506 | 12.30517 | 3940 ft | 283 kts | 226° |
| 2026-05-06 06:32 | 51.34226 | 12.27950 | 4220 ft | 307 kts | 240° |
| 2026-05-06 06:32 | 51.33151 | 12.24992 | 5015 ft | 302 kts | 242° |
| 2026-05-06 06:32 | 51.32175 | 12.22268 | 5606 ft | 265 kts | 243° |
| 2026-05-06 06:33 | 51.31252 | 12.19848 | 6148 ft | 253 kts | 238° |
| 2026-05-06 06:33 | 51.30068 | 12.17752 | 6728 ft | 256 kts | 225° |
| 2026-05-06 06:33 | 51.28607 | 12.16078 | 7286 ft | 262 kts | 216° |
| 2026-05-06 06:33 | 51.26964 | 12.14747 | 7866 ft | 266 kts | 208° |
| 2026-05-06 06:34 | 51.25234 | 12.13658 | 8446 ft | 269 kts | 205° |
| 2026-05-06 06:34 | 51.23451 | 12.12698 | 9044 ft | 271 kts | 202° |
| 2026-05-06 06:34 | 51.21628 | 12.11851 | 9646 ft | 275 kts | 197° |
| 2026-05-06 06:34 | 51.19698 | 12.11594 | 10207 ft | 284 kts | 181° |
| 2026-05-06 06:35 | 51.17762 | 12.12428 | 10743 ft | 296 kts | 157° |
| 2026-05-06 06:35 | 51.16192 | 12.14595 | 11321 ft | 307 kts | 128° |
| 2026-05-06 06:35 | 51.15441 | 12.17802 | 11902 ft | 317 kts | 98° |
| 2026-05-06 06:35 | 51.15412 | 12.21341 | 12512 ft | 322 kts | 89° |
| 2026-05-06 06:36 | 51.15518 | 12.24925 | 13128 ft | 326 kts | 89° |
| 2026-05-06 06:36 | 51.15625 | 12.28543 | 13725 ft | 329 kts | 89° |
| 2026-05-06 06:36 | 51.15717 | 12.32196 | 14275 ft | 332 kts | 90° |
| 2026-05-06 06:36 | 51.15800 | 12.35885 | 14850 ft | 335 kts | 90° |
| 2026-05-06 06:37 | 51.15875 | 12.39604 | 15421 ft | 337 kts | 90° |
| 2026-05-06 06:37 | 51.15946 | 12.43355 | 15995 ft | 340 kts | 91° |
| 2026-05-06 06:37 | 51.16014 | 12.47130 | 16588 ft | 343 kts | 91° |
| 2026-05-06 06:37 | 51.16083 | 12.50945 | 17193 ft | 346 kts | 91° |
| 2026-05-06 06:38 | 51.16148 | 12.54798 | 17652 ft | 349 kts | 91° |
| 2026-05-06 06:38 | 51.16212 | 12.58675 | 18011 ft | 353 kts | 91° |
| 2026-05-06 06:38 | 51.16275 | 12.62677 | 18275 ft | 369 kts | 91° |
| 2026-05-06 06:38 | 51.16339 | 12.66849 | 18520 ft | 384 kts | 91° |
| 2026-05-06 06:39 | 51.16405 | 12.71111 | 18766 ft | 397 kts | 91° |
| 2026-05-06 06:39 | 51.16472 | 12.75591 | 19015 ft | 411 kts | 91° |
| 2026-05-06 06:39 | 51.16541 | 12.80203 | 19261 ft | 423 kts | 91° |
| 2026-05-06 06:39 | 51.16610 | 12.84954 | 19539 ft | 434 kts | 91° |
| 2026-05-06 06:40 | 51.16679 | 12.89792 | 19968 ft | 439 kts | 91° |
| 2026-05-06 06:40 | 51.16748 | 12.94671 | 20452 ft | 441 kts | 91° |
| 2026-05-06 06:40 | 51.16814 | 12.99568 | 20959 ft | 444 kts | 91° |
| 2026-05-06 06:40 | 51.16879 | 13.04507 | 21450 ft | 447 kts | 91° |
| 2026-05-06 06:41 | 51.16941 | 13.09477 | 21907 ft | 450 kts | 91° |
| 2026-05-06 06:41 | 51.16982 | 13.14472 | 22369 ft | 452 kts | 93° |
| 2026-05-06 06:41 | 51.16663 | 13.19449 | 22819 ft | 451 kts | 104° |
| 2026-05-06 06:41 | 51.15695 | 13.24171 | 23274 ft | 448 kts | 117° |
| 2026-05-06 06:42 | 51.14184 | 13.28499 | 23659 ft | 447 kts | 125° |
| 2026-05-06 06:42 | 51.12511 | 13.32687 | 24003 ft | 449 kts | 126° |
| 2026-05-06 06:42 | 51.10817 | 13.36874 | 24339 ft | 452 kts | 126° |
| 2026-05-06 06:42 | 51.09115 | 13.41088 | 24665 ft | 454 kts | 127° |
| 2026-05-06 06:43 | 51.07408 | 13.45329 | 25000 ft | 457 kts | 127° |
| 2026-05-06 06:43 | 51.05830 | 13.49740 | 25318 ft | 463 kts | 120° |
| 2026-05-06 06:43 | 51.04683 | 13.54570 | 25636 ft | 471 kts | 109° |
| 2026-05-06 06:43 | 51.04103 | 13.59729 | 25949 ft | 479 kts | 98° |
| 2026-05-06 06:44 | 51.04142 | 13.65066 | 26239 ft | 487 kts | 86° |
| 2026-05-06 06:44 | 51.04821 | 13.70357 | 26526 ft | 492 kts | 75° |
| 2026-05-06 06:44 | 51.06045 | 13.75463 | 26807 ft | 496 kts | 69° |
| 2026-05-06 06:44 | 51.07449 | 13.80488 | 27086 ft | 499 kts | 66° |
| 2026-05-06 06:45 | 51.08930 | 13.85481 | 27340 ft | 501 kts | 65° |
| 2026-05-06 06:45 | 51.10444 | 13.90494 | 27609 ft | 503 kts | 65° |
| 2026-05-06 06:45 | 51.11958 | 13.95522 | 27865 ft | 505 kts | 66° |
| 2026-05-06 06:45 | 51.13465 | 14.00583 | 28101 ft | 507 kts | 66° |
| 2026-05-06 06:46 | 51.14965 | 14.05679 | 28368 ft | 508 kts | 66° |
| 2026-05-06 06:46 | 51.16451 | 14.10780 | 28715 ft | 508 kts | 66° |
| 2026-05-06 06:46 | 51.17928 | 14.15884 | 29073 ft | 507 kts | 66° |
| 2026-05-06 06:46 | 51.19396 | 14.20979 | 29563 ft | 502 kts | 67° |
| 2026-05-06 06:47 | 51.20837 | 14.25993 | 30219 ft | 494 kts | 67° |
| 2026-05-06 06:47 | 51.22248 | 14.30910 | 30544 ft | 494 kts | 67° |
| 2026-05-06 06:47 | 51.23673 | 14.35888 | 30796 ft | 494 kts | 67° |
| 2026-05-06 06:47 | 51.25100 | 14.40885 | 31078 ft | 494 kts | 68° |
| 2026-05-06 06:48 | 51.26527 | 14.45890 | 31155 ft | 499 kts | 68° |
| 2026-05-06 06:48 | 51.29423 | 14.56084 | 31479 ft | 504 kts | 68° |
| 2026-05-06 06:48 | 51.30863 | 14.61157 | 31929 ft | 500 kts | 69° |
| 2026-05-06 06:49 | 51.32295 | 14.66211 | 32329 ft | 497 kts | 69° |
| 2026-05-06 06:49 | 51.33716 | 14.71242 | 32707 ft | 495 kts | 69° |
| 2026-05-06 06:49 | 51.35128 | 14.76252 | 33076 ft | 494 kts | 70° |
| 2026-05-06 06:49 | 51.36530 | 14.81244 | 33567 ft | 489 kts | 70° |
| 2026-05-06 06:50 | 51.37909 | 14.86192 | 33922 ft | 486 kts | 71° |
| 2026-05-06 06:50 | 51.38951 | 14.91301 | 34146 ft | 481 kts | 82° |
| 2026-05-06 06:50 | 51.39416 | 14.96553 | 34343 ft | 474 kts | 92° |
| 2026-05-06 06:50 | 51.39252 | 15.01774 | 34552 ft | 466 kts | 104° |
| 2026-05-06 06:51 | 51.38521 | 15.06774 | 34856 ft | 459 kts | 111° |
| 2026-05-06 06:51 | 51.37605 | 15.11655 | 35063 ft | 458 kts | 113° |
| 2026-05-06 06:51 | 51.36603 | 15.16496 | 35244 ft | 459 kts | 114° |
| 2026-05-06 06:51 | 51.35563 | 15.21324 | 35454 ft | 459 kts | 114° |
| 2026-05-06 06:52 | 51.34514 | 15.26153 | 35655 ft | 460 kts | 114° |
| 2026-05-06 06:52 | 51.33469 | 15.30985 | 35853 ft | 461 kts | 114° |
| 2026-05-06 06:52 | 51.32427 | 15.35840 | 36056 ft | 462 kts | 113° |
| 2026-05-06 06:52 | 51.31394 | 15.40692 | 36258 ft | 462 kts | 113° |
| 2026-05-06 06:53 | 51.30360 | 15.45565 | 36418 ft | 463 kts | 113° |
| 2026-05-06 06:53 | 51.29325 | 15.50446 | 36576 ft | 465 kts | 113° |
| 2026-05-06 06:53 | 51.28286 | 15.55344 | 36725 ft | 466 kts | 113° |
| 2026-05-06 06:54 | 51.26223 | 15.65048 | 36750 ft | 457 kts | 113° |
| 2026-05-06 06:54 | 51.24176 | 15.74617 | 36753 ft | 454 kts | 113° |
| 2026-05-06 06:55 | 51.22121 | 15.84155 | 36757 ft | 454 kts | 113° |
| 2026-05-06 06:55 | 51.20059 | 15.93680 | 36752 ft | 454 kts | 113° |
| 2026-05-06 06:56 | 51.17992 | 16.03191 | 36757 ft | 454 kts | 113° |
| 2026-05-06 06:56 | 51.15924 | 16.12672 | 36767 ft | 458 kts | 114° |
| 2026-05-06 06:57 | 51.13819 | 16.22267 | 36759 ft | 459 kts | 114° |
| 2026-05-06 06:57 | 51.11707 | 16.31849 | 36764 ft | 459 kts | 114° |
| 2026-05-06 06:58 | 51.09587 | 16.41432 | 36763 ft | 459 kts | 114° |
| 2026-05-06 06:58 | 51.07468 | 16.51010 | 36766 ft | 459 kts | 113° |
| 2026-05-06 06:59 | 51.05413 | 16.60620 | 36765 ft | 459 kts | 113° |
| 2026-05-06 06:59 | 51.03373 | 16.70246 | 36766 ft | 459 kts | 113° |
| 2026-05-06 07:00 | 51.01323 | 16.79851 | 36774 ft | 459 kts | 113° |
| 2026-05-06 07:00 | 50.99260 | 16.89439 | 36778 ft | 458 kts | 113° |
| 2026-05-06 07:01 | 50.97189 | 16.99003 | 36778 ft | 458 kts | 113° |
| 2026-05-06 07:01 | 50.95111 | 17.08558 | 36761 ft | 458 kts | 113° |
| 2026-05-06 07:02 | 50.93026 | 17.18103 | 36777 ft | 458 kts | 114° |
| 2026-05-06 07:02 | 50.91288 | 17.26027 | 36762 ft | 458 kts | 114° |
| 2026-05-06 07:03 | 50.89193 | 17.35541 | 36773 ft | 457 kts | 114° |
| 2026-05-06 07:03 | 50.87122 | 17.44899 | 36778 ft | 457 kts | 114° |
| 2026-05-06 07:04 | 50.85010 | 17.54398 | 36780 ft | 457 kts | 114° |
| 2026-05-06 07:04 | 50.82892 | 17.63883 | 36749 ft | 457 kts | 114° |
| 2026-05-06 07:05 | 50.80761 | 17.73379 | 36784 ft | 458 kts | 114° |
| 2026-05-06 07:05 | 50.78621 | 17.82877 | 36785 ft | 459 kts | 114° |
| 2026-05-06 07:06 | 50.76474 | 17.92370 | 36787 ft | 459 kts | 114° |
| 2026-05-06 07:06 | 50.74328 | 18.01853 | 36788 ft | 459 kts | 114° |
| 2026-05-06 07:07 | 50.72178 | 18.11321 | 36784 ft | 458 kts | 114° |
| 2026-05-06 07:07 | 50.70022 | 18.20774 | 36786 ft | 457 kts | 114° |
| 2026-05-06 07:08 | 50.67859 | 18.30210 | 36788 ft | 457 kts | 114° |
| 2026-05-06 07:08 | 50.65692 | 18.39621 | 36793 ft | 457 kts | 114° |
| 2026-05-06 07:09 | 50.63441 | 18.48991 | 36791 ft | 457 kts | 115° |
| 2026-05-06 07:09 | 50.61124 | 18.58294 | 36796 ft | 456 kts | 116° |
| 2026-05-06 07:10 | 50.58798 | 18.67588 | 36787 ft | 456 kts | 116° |
| 2026-05-06 07:10 | 50.56474 | 18.76882 | 36797 ft | 456 kts | 116° |
| 2026-05-06 07:11 | 50.54149 | 18.86162 | 36798 ft | 456 kts | 116° |
| 2026-05-06 07:11 | 50.51815 | 18.95440 | 36802 ft | 456 kts | 116° |
| 2026-05-06 07:12 | 50.49480 | 19.04682 | 36798 ft | 455 kts | 116° |
| 2026-05-06 07:12 | 50.47140 | 19.13906 | 36805 ft | 455 kts | 116° |
| 2026-05-06 07:13 | 50.44790 | 19.23130 | 36799 ft | 455 kts | 116° |
| 2026-05-06 07:13 | 50.42435 | 19.32338 | 36787 ft | 455 kts | 116° |
| 2026-05-06 07:14 | 50.40073 | 19.41532 | 36798 ft | 455 kts | 116° |
| 2026-05-06 07:14 | 50.37716 | 19.50673 | 36799 ft | 455 kts | 116° |
| 2026-05-06 07:15 | 50.35337 | 19.59861 | 36799 ft | 455 kts | 116° |
| 2026-05-06 07:15 | 50.32952 | 19.69038 | 36802 ft | 455 kts | 116° |
| 2026-05-06 07:16 | 50.30557 | 19.78210 | 36797 ft | 455 kts | 116° |
| 2026-05-06 07:16 | 50.28161 | 19.87350 | 36802 ft | 454 kts | 116° |
| 2026-05-06 07:17 | 50.25757 | 19.96486 | 36803 ft | 454 kts | 116° |
| 2026-05-06 07:17 | 50.23349 | 20.05605 | 36808 ft | 454 kts | 116° |
| 2026-05-06 07:18 | 50.20933 | 20.14711 | 36786 ft | 454 kts | 115° |
| 2026-05-06 07:18 | 50.18512 | 20.23806 | 36808 ft | 453 kts | 115° |
| 2026-05-06 07:19 | 50.16086 | 20.32881 | 36810 ft | 453 kts | 116° |
| 2026-05-06 07:19 | 50.13653 | 20.41950 | 36812 ft | 453 kts | 116° |
| 2026-05-06 07:20 | 50.11216 | 20.50998 | 36812 ft | 453 kts | 116° |
| 2026-05-06 07:20 | 50.08771 | 20.60040 | 36812 ft | 452 kts | 115° |
| 2026-05-06 07:21 | 50.06323 | 20.69056 | 36812 ft | 452 kts | 115° |
| 2026-05-06 07:21 | 50.03860 | 20.78086 | 36605 ft | 459 kts | 115° |
| 2026-05-06 07:21 | 50.02604 | 20.82674 | 36351 ft | 461 kts | 115° |
| 2026-05-06 07:22 | 50.01350 | 20.87254 | 36088 ft | 461 kts | 115° |
| 2026-05-06 07:22 | 50.00093 | 20.91838 | 35833 ft | 461 kts | 116° |
| 2026-05-06 07:22 | 49.98833 | 20.96419 | 35569 ft | 461 kts | 115° |
| 2026-05-06 07:22 | 49.97572 | 21.01002 | 35313 ft | 461 kts | 115° |
| 2026-05-06 07:23 | 49.96312 | 21.05567 | 35065 ft | 459 kts | 115° |
| 2026-05-06 07:23 | 49.95053 | 21.10119 | 34829 ft | 458 kts | 115° |
| 2026-05-06 07:23 | 49.93907 | 21.14726 | 34582 ft | 458 kts | 109° |
| 2026-05-06 07:23 | 49.93189 | 21.19530 | 34346 ft | 458 kts | 100° |
| 2026-05-06 07:24 | 49.92901 | 21.24389 | 34113 ft | 458 kts | 95° |
| 2026-05-06 07:24 | 49.92742 | 21.29389 | 33872 ft | 457 kts | 94° |
| 2026-05-06 07:24 | 49.92652 | 21.34244 | 33604 ft | 456 kts | 93° |
| 2026-05-06 07:24 | 49.92589 | 21.39213 | 33324 ft | 454 kts | 92° |
| 2026-05-06 07:25 | 49.92536 | 21.44029 | 33050 ft | 451 kts | 92° |
| 2026-05-06 07:25 | 49.92478 | 21.48951 | 32781 ft | 450 kts | 92° |
| 2026-05-06 07:25 | 49.92414 | 21.53727 | 32516 ft | 448 kts | 92° |
| 2026-05-06 07:25 | 49.92341 | 21.58547 | 32258 ft | 445 kts | 92° |
| 2026-05-06 07:26 | 49.92262 | 21.63341 | 32000 ft | 444 kts | 92° |
| 2026-05-06 07:26 | 49.92179 | 21.68109 | 31736 ft | 441 kts | 93° |
| 2026-05-06 07:26 | 49.92092 | 21.72865 | 31474 ft | 440 kts | 93° |
| 2026-05-06 07:26 | 49.92002 | 21.77593 | 31252 ft | 438 kts | 93° |
| 2026-05-06 07:27 | 49.91909 | 21.82304 | 30985 ft | 435 kts | 93° |
| 2026-05-06 07:27 | 49.91816 | 21.86989 | 30726 ft | 434 kts | 93° |
| 2026-05-06 07:27 | 49.91721 | 21.91660 | 30479 ft | 432 kts | 93° |
| 2026-05-06 07:27 | 49.91625 | 21.96313 | 30240 ft | 431 kts | 94° |
| 2026-05-06 07:28 | 49.91528 | 22.00964 | 29997 ft | 430 kts | 93° |
| 2026-05-06 07:28 | 49.91430 | 22.05584 | 29711 ft | 427 kts | 93° |
| 2026-05-06 07:28 | 49.91228 | 22.14765 | 29171 ft | 423 kts | 93° |
| 2026-05-06 07:29 | 49.91126 | 22.19317 | 28889 ft | 421 kts | 94° |
| 2026-05-06 07:29 | 49.91021 | 22.23855 | 28600 ft | 421 kts | 94° |
| 2026-05-06 07:29 | 49.90916 | 22.28396 | 28040 ft | 420 kts | 94° |
| 2026-05-06 07:29 | 49.90809 | 22.32923 | 27377 ft | 420 kts | 94° |
| 2026-05-06 07:30 | 49.90698 | 22.37445 | 26725 ft | 420 kts | 93° |
| 2026-05-06 07:30 | 49.90586 | 22.41968 | 26090 ft | 419 kts | 93° |
| 2026-05-06 07:30 | 49.90473 | 22.46485 | 25392 ft | 420 kts | 94° |
| 2026-05-06 07:30 | 49.90359 | 22.51031 | 24671 ft | 422 kts | 94° |
| 2026-05-06 07:31 | 49.90243 | 22.55593 | 23966 ft | 424 kts | 94° |
| 2026-05-06 07:31 | 49.90126 | 22.60165 | 23258 ft | 425 kts | 94° |
| 2026-05-06 07:31 | 49.90007 | 22.64754 | 22449 ft | 425 kts | 94° |
| 2026-05-06 07:31 | 49.89884 | 22.69328 | 21662 ft | 424 kts | 95° |
| 2026-05-06 07:32 | 49.89758 | 22.73896 | 20899 ft | 422 kts | 95° |
| 2026-05-06 07:32 | 49.89632 | 22.78431 | 20154 ft | 419 kts | 95° |
| 2026-05-06 07:32 | 49.89506 | 22.82927 | 19427 ft | 416 kts | 96° |
| 2026-05-06 07:32 | 49.89379 | 22.87389 | 18712 ft | 412 kts | 96° |
| 2026-05-06 07:33 | 49.89252 | 22.91800 | 17990 ft | 408 kts | 96° |
| 2026-05-06 07:33 | 49.89125 | 22.96170 | 17181 ft | 404 kts | 96° |
| 2026-05-06 07:33 | 49.88988 | 23.00439 | 16419 ft | 399 kts | 98° |
| 2026-05-06 07:33 | 49.88490 | 23.04615 | 15651 ft | 390 kts | 112° |
| 2026-05-06 07:34 | 49.87282 | 23.08282 | 14918 ft | 378 kts | 130° |
| 2026-05-06 07:34 | 49.85609 | 23.11361 | 14197 ft | 371 kts | 137° |
| 2026-05-06 07:34 | 49.83831 | 23.14312 | 13455 ft | 368 kts | 138° |
| 2026-05-06 07:34 | 49.82108 | 23.17147 | 12675 ft | 365 kts | 138° |
| 2026-05-06 07:35 | 49.80378 | 23.20005 | 11917 ft | 362 kts | 138° |
| 2026-05-06 07:35 | 49.78643 | 23.22879 | 11140 ft | 359 kts | 137° |
| 2026-05-06 07:35 | 49.76972 | 23.25653 | 10420 ft | 356 kts | 137° |
| 2026-05-06 07:35 | 49.75269 | 23.28483 | 9694 ft | 352 kts | 137° |
| 2026-05-06 07:36 | 49.73635 | 23.31193 | 9119 ft | 345 kts | 137° |
| 2026-05-06 07:36 | 49.72040 | 23.33843 | 8900 ft | 328 kts | 137° |
| 2026-05-06 07:36 | 49.70533 | 23.36353 | 8792 ft | 311 kts | 138° |
| 2026-05-06 07:36 | 49.69081 | 23.38758 | 8557 ft | 299 kts | 138° |
| 2026-05-06 07:37 | 49.67807 | 23.41232 | 8298 ft | 296 kts | 124° |
| 2026-05-06 07:37 | 49.67225 | 23.44287 | 7964 ft | 302 kts | 99° |
| 2026-05-06 07:37 | 49.67507 | 23.47520 | 7568 ft | 310 kts | 73° |
| 2026-05-06 07:37 | 49.68447 | 23.50514 | 7177 ft | 310 kts | 63° |
| 2026-05-06 07:38 | 49.69528 | 23.53399 | 6722 ft | 310 kts | 62° |
| 2026-05-06 07:38 | 49.70618 | 23.56281 | 6317 ft | 310 kts | 62° |
| 2026-05-06 07:38 | 49.71706 | 23.59146 | 5907 ft | 309 kts | 62° |
| 2026-05-06 07:38 | 49.72785 | 23.61974 | 5615 ft | 302 kts | 62° |
| 2026-05-06 07:39 | 49.73834 | 23.64728 | 5474 ft | 291 kts | 62° |
| 2026-05-06 07:39 | 49.74854 | 23.67369 | 5338 ft | 282 kts | 62° |
| 2026-05-06 07:39 | 49.75838 | 23.69932 | 5214 ft | 272 kts | 62° |
| 2026-05-06 07:39 | 49.76787 | 23.72430 | 5021 ft | 268 kts | 62° |
| 2026-05-06 07:40 | 49.77727 | 23.74916 | 4768 ft | 268 kts | 62° |
| 2026-05-06 07:40 | 49.78670 | 23.77402 | 4477 ft | 267 kts | 62° |
| 2026-05-06 07:40 | 49.79608 | 23.79869 | 4402 ft | 265 kts | 62° |
| 2026-05-06 07:40 | 49.80538 | 23.82334 | 4397 ft | 265 kts | 62° |
| 2026-05-06 07:41 | 49.81461 | 23.84790 | 4395 ft | 264 kts | 62° |
| 2026-05-06 07:41 | 49.82382 | 23.87256 | 4403 ft | 265 kts | 62° |
| 2026-05-06 07:41 | 49.83310 | 23.89728 | 4399 ft | 266 kts | 62° |
| 2026-05-06 07:41 | 49.84232 | 23.92205 | 4400 ft | 265 kts | 63° |
| 2026-05-06 07:42 | 49.84784 | 23.94872 | 4394 ft | 257 kts | 91° |
| 2026-05-06 07:42 | 49.84512 | 23.97518 | 4409 ft | 246 kts | 115° |
| 2026-05-06 07:42 | 49.83893 | 23.99967 | 4402 ft | 243 kts | 119° |
| 2026-05-06 07:42 | 49.83226 | 24.02375 | 4398 ft | 244 kts | 120° |
| 2026-05-06 07:43 | 49.82563 | 24.04765 | 4403 ft | 245 kts | 120° |
| 2026-05-06 07:43 | 49.81889 | 24.07171 | 4396 ft | 239 kts | 120° |
| 2026-05-06 07:43 | 49.81246 | 24.09486 | 4389 ft | 228 kts | 120° |
| 2026-05-06 07:43 | 49.80625 | 24.11710 | 4409 ft | 223 kts | 121° |
| 2026-05-06 07:44 | 49.79892 | 24.13799 | 4403 ft | 219 kts | 127° |
| 2026-05-06 07:44 | 49.79123 | 24.15841 | 4402 ft | 219 kts | 127° |
| 2026-05-06 07:44 | 49.78356 | 24.17878 | 4424 ft | 219 kts | 127° |
| 2026-05-06 07:44 | 49.77590 | 24.19923 | 4513 ft | 220 kts | 126° |
| 2026-05-06 07:45 | 49.76814 | 24.21965 | 4555 ft | 221 kts | 127° |
| 2026-05-06 07:45 | 49.76022 | 24.24005 | 4557 ft | 222 kts | 127° |
| 2026-05-06 07:45 | 49.75218 | 24.26052 | 4552 ft | 223 kts | 127° |
| 2026-05-06 07:45 | 49.74415 | 24.28106 | 4555 ft | 223 kts | 127° |
| 2026-05-06 07:46 | 49.73607 | 24.30148 | 4552 ft | 223 kts | 127° |
| 2026-05-06 07:46 | 49.72794 | 24.32196 | 4524 ft | 223 kts | 127° |
| 2026-05-06 07:46 | 49.71995 | 24.34253 | 4298 ft | 222 kts | 127° |
| 2026-05-06 07:46 | 49.71206 | 24.36281 | 4168 ft | 219 kts | 127° |
| 2026-05-06 07:47 | 49.70414 | 24.38281 | 3940 ft | 216 kts | 134° |
| 2026-05-06 07:47 | 49.69261 | 24.39525 | 3607 ft | 199 kts | 175° |
| 2026-05-06 07:47 | 49.67970 | 24.39151 | 3368 ft | 189 kts | 211° |
| 2026-05-06 07:47 | 49.67022 | 24.37786 | 3146 ft | 188 kts | 229° |
| 2026-05-06 07:48 | 49.66216 | 24.36163 | 3097 ft | 193 kts | 230° |
| 2026-05-06 07:48 | 49.65371 | 24.34550 | 3081 ft | 193 kts | 227° |
| 2026-05-06 07:48 | 49.64512 | 24.32939 | 3058 ft | 196 kts | 233° |
| 2026-05-06 07:48 | 49.63967 | 24.31091 | 3037 ft | 186 kts | 252° |
| 2026-05-06 07:49 | 49.63955 | 24.29109 | 3061 ft | 189 kts | 275° |
| 2026-05-06 07:49 | 49.64308 | 24.27138 | 3059 ft | 192 kts | 282° |
| 2026-05-06 07:49 | 49.64592 | 24.25850 | 3052 ft | 191 kts | 284° |
| 2026-05-06 07:49 | 49.65032 | 24.23988 | 3025 ft | 178 kts | 284° |
| 2026-05-06 07:50 | 49.65426 | 24.22236 | 3017 ft | 170 kts | 284° |
| 2026-05-06 07:50 | 49.65823 | 24.20520 | 3030 ft | 169 kts | 284° |
| 2026-05-06 07:50 | 49.66130 | 24.18781 | 2995 ft | 166 kts | 267° |
| 2026-05-06 07:50 | 49.65868 | 24.17136 | 3016 ft | 155 kts | 231° |
| 2026-05-06 07:51 | 49.65010 | 24.16310 | 3018 ft | 150 kts | 181° |
| 2026-05-06 07:51 | 49.64093 | 24.17040 | 3049 ft | 159 kts | 134° |
| 2026-05-06 07:51 | 49.63339 | 24.18296 | 3031 ft | 157 kts | 153° |
| 2026-05-06 07:51 | 49.62314 | 24.18659 | 2764 ft | 153 kts | 187° |
| 2026-05-06 07:52 | 49.61311 | 24.18140 | 2615 ft | 154 kts | 208° |
| 2026-05-06 07:52 | 49.60574 | 24.16992 | 3243 ft | 144 kts | 240° |
| 2026-05-06 07:52 | 49.60505 | 24.15671 | 4522 ft | 111 kts | 275° |
| 2026-05-06 07:52 | 49.60742 | 24.14319 | 4202 ft | 154 kts | 275° |
| 2026-05-06 07:53 | 49.60958 | 24.12574 | 3729 ft | 172 kts | 274° |
| 2026-05-06 07:53 | 49.61154 | 24.10738 | 3627 ft | 174 kts | 276° |
| 2026-05-06 07:53 | 49.61488 | 24.08984 | 3586 ft | 168 kts | 284° |
| 2026-05-06 07:53 | 49.61916 | 24.07298 | 3297 ft | 170 kts | 289° |
| 2026-05-06 07:54 | 49.62577 | 24.05759 | 3068 ft | 179 kts | 315° |
| 2026-05-06 07:54 | 49.63736 | 24.05002 | 3038 ft | 185 kts | 347° |
| 2026-05-06 07:54 | 49.65023 | 24.04804 | 3029 ft | 187 kts | 0° |
| 2026-05-06 07:54 | 49.66302 | 24.05184 | 3039 ft | 189 kts | 17° |
| 2026-05-06 07:55 | 49.67957 | 24.06018 | 3001 ft | 189 kts | 19° |
| 2026-05-06 07:55 | 49.68768 | 24.06575 | 3005 ft | 189 kts | 38° |
| 2026-05-06 07:55 | 49.69403 | 24.08198 | 3000 ft | 173 kts | 94° |
| 2026-05-06 07:55 | 49.69203 | 24.09978 | 3037 ft | 166 kts | 114° |
| 2026-05-06 07:56 | 49.68764 | 24.11596 | 3041 ft | 164 kts | 123° |
| 2026-05-06 07:56 | 49.68211 | 24.13133 | 3025 ft | 164 kts | 126° |
| 2026-05-06 07:56 | 49.67624 | 24.14642 | 3028 ft | 164 kts | 127° |
| 2026-05-06 07:56 | 49.66976 | 24.16064 | 3013 ft | 158 kts | 147° |
| 2026-05-06 07:57 | 49.65978 | 24.16552 | 3031 ft | 151 kts | 182° |
| 2026-05-06 07:57 | 49.64992 | 24.16123 | 3034 ft | 151 kts | 206° |
| 2026-05-06 07:57 | 49.64073 | 24.15304 | 3032 ft | 154 kts | 208° |
| 2026-05-06 07:57 | 49.63164 | 24.14456 | 3023 ft | 152 kts | 210° |
| 2026-05-06 07:58 | 49.62258 | 24.13579 | 3018 ft | 152 kts | 216° |
| 2026-05-06 07:58 | 49.61745 | 24.12172 | 3015 ft | 160 kts | 258° |
| 2026-05-06 07:58 | 49.61683 | 24.10474 | 3024 ft | 159 kts | 251° |
| 2026-05-06 07:58 | 49.61062 | 24.09181 | 3019 ft | 152 kts | 212° |
| 2026-05-06 07:59 | 49.60154 | 24.08321 | 3028 ft | 155 kts | 203° |
| 2026-05-06 07:59 | 49.59106 | 24.08146 | 3022 ft | 156 kts | 165° |
| 2026-05-06 07:59 | 49.58313 | 24.09299 | 3013 ft | 168 kts | 117° |
| 2026-05-06 07:59 | 49.58134 | 24.11089 | 3029 ft | 171 kts | 93° |
| 2026-05-06 08:00 | 49.58297 | 24.12919 | 3022 ft | 174 kts | 83° |
| 2026-05-06 08:00 | 49.58620 | 24.14749 | 3023 ft | 180 kts | 77° |
| 2026-05-06 08:00 | 49.59040 | 24.16590 | 3061 ft | 186 kts | 66° |
| 2026-05-06 08:00 | 49.59918 | 24.18034 | 3015 ft | 190 kts | 30° |
| 2026-05-06 08:01 | 49.61176 | 24.18600 | 3035 ft | 188 kts | 6° |
| 2026-05-06 08:01 | 49.62476 | 24.18636 | 3023 ft | 186 kts | 354° |
| 2026-05-06 08:01 | 49.63761 | 24.18395 | 3025 ft | 187 kts | 348° |
| 2026-05-06 08:01 | 49.65049 | 24.18052 | 3008 ft | 187 kts | 347° |
| 2026-05-06 08:02 | 49.66284 | 24.17475 | 3013 ft | 185 kts | 329° |
| 2026-05-06 08:02 | 49.67321 | 24.16356 | 3012 ft | 180 kts | 314° |
| 2026-05-06 08:02 | 49.68234 | 24.15026 | 3019 ft | 180 kts | 309° |
| 2026-05-06 08:02 | 49.69122 | 24.13662 | 3053 ft | 181 kts | 310° |
| 2026-05-06 08:03 | 49.70025 | 24.12304 | 3028 ft | 180 kts | 310° |
| 2026-05-06 08:03 | 49.70917 | 24.10956 | 3016 ft | 179 kts | 310° |
| 2026-05-06 08:03 | 49.71801 | 24.09615 | 3012 ft | 177 kts | 310° |
| 2026-05-06 08:03 | 49.72650 | 24.08338 | 3001 ft | 163 kts | 309° |
| 2026-05-06 08:04 | 49.73442 | 24.07151 | 2866 ft | 154 kts | 309° |
| 2026-05-06 08:04 | 49.74186 | 24.06038 | 2691 ft | 145 kts | 309° |
| 2026-05-06 08:04 | 49.74905 | 24.04954 | 2469 ft | 145 kts | 308° |
| 2026-05-06 08:04 | 49.75640 | 24.03849 | 2287 ft | 149 kts | 309° |
| 2026-05-06 08:05 | 49.76389 | 24.02726 | 2081 ft | 150 kts | 308° |
| 2026-05-06 08:05 | 49.77144 | 24.01605 | 1870 ft | 154 kts | 311° |
| 2026-05-06 08:05 | 49.77915 | 24.00453 | 1675 ft | 158 kts | 310° |
| 2026-05-06 08:05 | 49.78737 | 23.99247 | 1498 ft | 168 kts | 308° |
| 2026-05-06 08:06 | 49.79574 | 23.97969 | 1276 ft | 167 kts | 308° |
| 2026-05-06 08:06 | 49.80373 | 23.96717 | 1146 ft | 160 kts | 311° |
| 2026-05-06 08:06 | 49.81267 | 23.95335 | 1426 ft | 192 kts | 309° |
| 2026-05-06 08:06 | 49.82166 | 23.93983 | 1472 ft | 170 kts | 310° |
| 2026-05-06 08:07 | 49.82958 | 23.92731 | 1356 ft | 154 kts | 306° |
| 2026-05-06 08:07 | 49.83661 | 23.91503 | 1287 ft | 161 kts | 307° |
| 2026-05-06 08:07 | 49.84421 | 23.90097 | 1769 ft | 170 kts | 305° |
| 2026-05-06 08:07 | 49.85205 | 23.88663 | 2906 ft | 184 kts | 302° |
| 2026-05-06 08:08 | 49.86035 | 23.87150 | 3404 ft | 186 kts | 306° |
| 2026-05-06 08:08 | 49.87187 | 23.86150 | 3489 ft | 200 kts | 343° |
| 2026-05-06 08:08 | 49.88602 | 23.86211 | 3495 ft | 207 kts | 6° |
| 2026-05-06 08:08 | 49.90019 | 23.86666 | 3484 ft | 209 kts | 10° |
| 2026-05-06 08:09 | 49.91341 | 23.87598 | 3487 ft | 212 kts | 43° |
| 2026-05-06 08:09 | 49.92088 | 23.89468 | 3478 ft | 201 kts | 84° |
| 2026-05-06 08:09 | 49.92123 | 23.91587 | 3495 ft | 195 kts | 104° |
| 2026-05-06 08:09 | 49.91871 | 23.93632 | 3497 ft | 190 kts | 118° |
| 2026-05-06 08:10 | 49.91281 | 23.95558 | 3511 ft | 207 kts | 126° |
| 2026-05-06 08:10 | 49.90553 | 23.97561 | 3480 ft | 216 kts | 127° |
| 2026-05-06 08:10 | 49.89805 | 23.99585 | 3492 ft | 215 kts | 126° |
| 2026-05-06 08:10 | 49.89052 | 24.01573 | 3491 ft | 213 kts | 127° |
| 2026-05-06 08:11 | 49.88300 | 24.03557 | 3489 ft | 213 kts | 127° |
| 2026-05-06 08:11 | 49.87562 | 24.05549 | 3341 ft | 213 kts | 127° |
| 2026-05-06 08:11 | 49.86821 | 24.07552 | 3134 ft | 214 kts | 127° |
| 2026-05-06 08:11 | 49.86086 | 24.09538 | 3020 ft | 212 kts | 127° |
| 2026-05-06 08:12 | 49.85363 | 24.11498 | 3010 ft | 212 kts | 127° |
| 2026-05-06 08:12 | 49.84622 | 24.13474 | 3012 ft | 211 kts | 127° |
| 2026-05-06 08:12 | 49.83892 | 24.15442 | 3014 ft | 210 kts | 127° |
| 2026-05-06 08:12 | 49.83164 | 24.17408 | 3014 ft | 211 kts | 127° |
| 2026-05-06 08:13 | 49.82439 | 24.19383 | 3014 ft | 212 kts | 127° |
| 2026-05-06 08:13 | 49.81712 | 24.21369 | 3019 ft | 212 kts | 127° |
| 2026-05-06 08:13 | 49.80773 | 24.23034 | 3005 ft | 201 kts | 149° |
| 2026-05-06 08:13 | 49.79519 | 24.23853 | 3006 ft | 195 kts | 176° |
| 2026-05-06 08:14 | 49.78167 | 24.23765 | 3029 ft | 195 kts | 191° |
| 2026-05-06 08:14 | 49.76849 | 24.23283 | 3019 ft | 194 kts | 198° |
| 2026-05-06 08:14 | 49.75570 | 24.22598 | 3030 ft | 195 kts | 201° |
| 2026-05-06 08:14 | 49.74311 | 24.21840 | 3028 ft | 194 kts | 202° |
| 2026-05-06 08:15 | 49.73059 | 24.21052 | 3024 ft | 194 kts | 203° |
| 2026-05-06 08:15 | 49.71829 | 24.20294 | 3012 ft | 185 kts | 201° |
| 2026-05-06 08:15 | 49.70670 | 24.19641 | 3051 ft | 172 kts | 198° |
| 2026-05-06 08:15 | 49.69550 | 24.19020 | 3014 ft | 171 kts | 199° |
| 2026-05-06 08:16 | 49.68417 | 24.18411 | 3025 ft | 173 kts | 199° |
| 2026-05-06 08:16 | 49.67275 | 24.17781 | 3015 ft | 175 kts | 206° |
| 2026-05-06 08:16 | 49.66505 | 24.16368 | 2999 ft | 178 kts | 240° |
| 2026-05-06 08:16 | 49.66012 | 24.14620 | 3010 ft | 179 kts | 244° |
| 2026-05-06 08:17 | 49.65943 | 24.12685 | 3008 ft | 189 kts | 282° |
| 2026-05-06 08:17 | 49.66724 | 24.11007 | 3011 ft | 201 kts | 320° |
| 2026-05-06 08:17 | 49.67992 | 24.10048 | 3022 ft | 208 kts | 341° |
| 2026-05-06 08:17 | 49.69434 | 24.09944 | 3027 ft | 210 kts | 1° |
| 2026-05-06 08:18 | 49.70822 | 24.09624 | 2992 ft | 193 kts | 330° |
| 2026-05-06 08:18 | 49.71921 | 24.08589 | 2984 ft | 182 kts | 319° |
| 2026-05-06 08:18 | 49.72903 | 24.07467 | 2968 ft | 171 kts | 317° |
| 2026-05-06 08:18 | 49.73858 | 24.06404 | 2825 ft | 166 kts | 314° |
| 2026-05-06 08:19 | 49.74707 | 24.05215 | 2539 ft | 163 kts | 308° |
| 2026-05-06 08:19 | 49.75513 | 24.04033 | 2304 ft | 154 kts | 309° |
| 2026-05-06 08:19 | 49.76261 | 24.02907 | 2112 ft | 149 kts | 309° |
| 2026-05-06 08:19 | 49.77011 | 24.01813 | 1908 ft | 148 kts | 310° |
| 2026-05-06 08:20 | 49.77760 | 24.00682 | 1673 ft | 152 kts | 308° |
| 2026-05-06 08:20 | 49.78516 | 23.99543 | 1428 ft | 152 kts | 310° |
| 2026-05-06 08:20 | 49.79298 | 23.98389 | 1308 ft | 159 kts | 307° |
| 2026-05-06 08:20 | 49.80076 | 23.97189 | 1101 ft | 154 kts | 310° |
| 2026-05-06 08:21 | 49.80781 | 23.96123 | 1075 ft | 123 kts | 317° |
| 2026-05-06 08:21 | 49.81225 | 23.95464 | 1073 ft | 51 kts | 316° |
| 2026-05-06 08:21 | 49.81402 | 23.95196 | 1071 ft | 42 kts | 315° |
| 2026-05-06 08:21 | 49.81587 | 23.94915 | 1070 ft | 9 kts | 314° |
| 2026-05-06 08:22 | 49.81666 | 23.94829 | 1070 ft | 19 kts | 348° |
| 2026-05-06 08:22 | 49.81706 | 23.94841 | 1075 ft | 9 kts | 20° |
| 2026-05-06 08:22 | 49.81718 | 23.94849 | 1076 ft | 0 kts | 24° |
| 2026-05-06 08:22 | 49.81732 | 23.94863 | 1073 ft | 9 kts | 34° |
| 2026-05-06 08:23 | 49.81755 | 23.94892 | 1074 ft | 0 kts | 43° |
| 2026-05-06 08:23 | 49.81756 | 23.94893 | 1074 ft | 0 kts | 43° |
| 2026-05-06 08:23 | 49.81757 | 23.94895 | 1072 ft | 1 kts | 43° |
| 2026-05-06 08:23 | 49.81767 | 23.94910 | 1076 ft | 5 kts | 49° |
| 2026-05-06 08:24 | 49.81767 | 23.94983 | 1074 ft | 13 kts | 111° |
| 2026-05-06 08:24 | 49.81702 | 23.95089 | 1075 ft | 13 kts | 139° |
| 2026-05-06 08:24 | 49.81639 | 23.95181 | 1072 ft | 12 kts | 134° |
| 2026-05-06 08:24 | 49.81554 | 23.95312 | 1075 ft | 22 kts | 135° |
| 2026-05-06 08:25 | 49.81437 | 23.95466 | 1072 ft | 21 kts | 150° |
| 2026-05-06 08:25 | 49.81323 | 23.95585 | 1072 ft | 19 kts | 137° |
| 2026-05-06 08:25 | 49.81313 | 23.95730 | 1073 ft | 8 kts | 59° |
| 2026-05-06 08:25 | 49.81333 | 23.95771 | 1073 ft | 3 kts | 45° |
| 2026-05-06 08:26 | 49.81346 | 23.95790 | 1072 ft | 0 kts | 44° |
| 2026-05-06 08:26 | 49.81347 | 23.95792 | 1072 ft | 0 kts | 44° |